sensor_id;sensor_type;location;lat;lon;timestamp;P1;durP1;ratioP1;P2;durP2;ratioP2
11046;SDS011;5576;50.008;10.596;2023-05-07T00:01:28;4.85;;;3.40;;
11046;SDS011;5576;50.008;10.596;2023-05-07T00:03:53;4.30;;;3.90;;
11046;SDS011;5576;50.008;10.596;2023-05-07T00:06:19;4.32;;;3.92;;
11046;SDS011;5576;50.008;10.596;2023-05-07T00:08:45;3.80;;;3.50;;
11046;SDS011;5576;50.008;10.596;2023-05-07T00:11:10;4.97;;;3.83;;
11046;SDS011;5576;50.008;10.596;2023-05-07T00:13:36;3.80;;;3.50;;
11046;SDS011;5576;50.008;10.596;2023-05-07T00:16:02;3.97;;;3.50;;
11046;SDS011;5576;50.008;10.596;2023-05-07T00:18:28;4.45;;;3.30;;
11046;SDS011;5576;50.008;10.596;2023-05-07T00:20:54;4.07;;;3.30;;
11046;SDS011;5576;50.008;10.596;2023-05-07T00:23:20;4.47;;;3.10;;
11046;SDS011;5576;50.008;10.596;2023-05-07T00:25:45;3.50;;;3.20;;
11046;SDS011;5576;50.008;10.596;2023-05-07T00:28:11;3.90;;;3.45;;
11046;SDS011;5576;50.008;10.596;2023-05-07T00:30:37;3.80;;;3.50;;
11046;SDS011;5576;50.008;10.596;2023-05-07T00:33:03;5.00;;;3.70;;
11046;SDS011;5576;50.008;10.596;2023-05-07T00:35:29;4.32;;;3.90;;
11046;SDS011;5576;50.008;10.596;2023-05-07T00:37:55;3.83;;;3.53;;
11046;SDS011;5576;50.008;10.596;2023-05-07T00:40:21;4.78;;;3.88;;
11046;SDS011;5576;50.008;10.596;2023-05-07T00:42:47;4.60;;;4.10;;
11046;SDS011;5576;50.008;10.596;2023-05-07T00:45:14;4.60;;;4.13;;
11046;SDS011;5576;50.008;10.596;2023-05-07T00:47:40;4.88;;;4.32;;
11046;SDS011;5576;50.008;10.596;2023-05-07T00:50:06;5.05;;;4.50;;
11046;SDS011;5576;50.008;10.596;2023-05-07T00:52:35;4.97;;;4.57;;
11046;SDS011;5576;50.008;10.596;2023-05-07T00:55:04;5.45;;;5.00;;
11046;SDS011;5576;50.008;10.596;2023-05-07T00:57:33;6.07;;;5.10;;
11046;SDS011;5576;50.008;10.596;2023-05-07T01:00:03;5.30;;;4.80;;
11046;SDS011;5576;50.008;10.596;2023-05-07T01:02:30;5.78;;;4.88;;
11046;SDS011;5576;50.008;10.596;2023-05-07T01:04:56;5.53;;;4.90;;
11046;SDS011;5576;50.008;10.596;2023-05-07T01:07:22;5.40;;;5.00;;
11046;SDS011;5576;50.008;10.596;2023-05-07T01:09:49;5.03;;;4.60;;
11046;SDS011;5576;50.008;10.596;2023-05-07T01:12:15;5.60;;;5.10;;
11046;SDS011;5576;50.008;10.596;2023-05-07T01:14:41;5.68;;;5.18;;
11046;SDS011;5576;50.008;10.596;2023-05-07T01:17:07;5.45;;;4.95;;
11046;SDS011;5576;50.008;10.596;2023-05-07T01:19:34;5.40;;;5.00;;
11046;SDS011;5576;50.008;10.596;2023-05-07T01:22:02;6.07;;;5.10;;
11046;SDS011;5576;50.008;10.596;2023-05-07T01:24:40;5.20;;;4.75;;
11046;SDS011;5576;50.008;10.596;2023-05-07T01:27:07;5.40;;;4.90;;
11046;SDS011;5576;50.008;10.596;2023-05-07T01:29:34;6.10;;;5.13;;
11046;SDS011;5576;50.008;10.596;2023-05-07T01:32:00;5.57;;;5.07;;
11046;SDS011;5576;50.008;10.596;2023-05-07T01:34:28;5.63;;;5.13;;
11046;SDS011;5576;50.008;10.596;2023-05-07T01:36:56;5.50;;;5.00;;
11046;SDS011;5576;50.008;10.596;2023-05-07T01:39:24;5.72;;;5.13;;
11046;SDS011;5576;50.008;10.596;2023-05-07T01:41:52;5.95;;;5.35;;
11046;SDS011;5576;50.008;10.596;2023-05-07T01:44:22;5.57;;;5.07;;
11046;SDS011;5576;50.008;10.596;2023-05-07T01:46:49;5.90;;;5.40;;
11046;SDS011;5576;50.008;10.596;2023-05-07T01:49:15;5.90;;;5.40;;
11046;SDS011;5576;50.008;10.596;2023-05-07T01:51:41;6.28;;;5.68;;
11046;SDS011;5576;50.008;10.596;2023-05-07T01:54:08;6.22;;;5.68;;
11046;SDS011;5576;50.008;10.596;2023-05-07T01:56:35;6.75;;;6.07;;
11046;SDS011;5576;50.008;10.596;2023-05-07T01:59:02;6.03;;;5.53;;
11046;SDS011;5576;50.008;10.596;2023-05-07T02:01:28;6.63;;;5.93;;
11046;SDS011;5576;50.008;10.596;2023-05-07T02:03:54;6.63;;;5.93;;
11046;SDS011;5576;50.008;10.596;2023-05-07T02:06:23;6.65;;;6.05;;
11046;SDS011;5576;50.008;10.596;2023-05-07T02:08:52;6.53;;;6.00;;
11046;SDS011;5576;50.008;10.596;2023-05-07T02:11:19;6.22;;;5.63;;
11046;SDS011;5576;50.008;10.596;2023-05-07T02:13:45;6.50;;;5.53;;
11046;SDS011;5576;50.008;10.596;2023-05-07T02:16:10;6.63;;;6.03;;
11046;SDS011;5576;50.008;10.596;2023-05-07T02:18:39;7.07;;;6.38;;
11046;SDS011;5576;50.008;10.596;2023-05-07T02:21:05;6.95;;;6.35;;
11046;SDS011;5576;50.008;10.596;2023-05-07T02:23:31;7.15;;;6.55;;
11046;SDS011;5576;50.008;10.596;2023-05-07T02:25:57;6.80;;;6.20;;
11046;SDS011;5576;50.008;10.596;2023-05-07T02:28:22;6.97;;;6.38;;
11046;SDS011;5576;50.008;10.596;2023-05-07T02:30:52;7.57;;;6.80;;
11046;SDS011;5576;50.008;10.596;2023-05-07T02:33:19;7.80;;;7.10;;
11046;SDS011;5576;50.008;10.596;2023-05-07T02:35:45;7.55;;;6.85;;
11046;SDS011;5576;50.008;10.596;2023-05-07T02:38:13;7.68;;;6.90;;
11046;SDS011;5576;50.008;10.596;2023-05-07T02:40:40;7.00;;;6.40;;
11046;SDS011;5576;50.008;10.596;2023-05-07T02:43:06;7.57;;;6.88;;
11046;SDS011;5576;50.008;10.596;2023-05-07T02:45:32;7.53;;;6.83;;
11046;SDS011;5576;50.008;10.596;2023-05-07T02:48:00;7.22;;;6.53;;
11046;SDS011;5576;50.008;10.596;2023-05-07T02:50:25;7.47;;;6.78;;
11046;SDS011;5576;50.008;10.596;2023-05-07T02:52:52;7.80;;;7.10;;
11046;SDS011;5576;50.008;10.596;2023-05-07T02:55:18;7.88;;;7.13;;
11046;SDS011;5576;50.008;10.596;2023-05-07T02:57:44;7.60;;;7.00;;
11046;SDS011;5576;50.008;10.596;2023-05-07T03:02:44;8.40;;;7.60;;
11046;SDS011;5576;50.008;10.596;2023-05-07T03:05:10;7.88;;;7.18;;
11046;SDS011;5576;50.008;10.596;2023-05-07T03:07:37;8.20;;;7.50;;
11046;SDS011;5576;50.008;10.596;2023-05-07T03:10:03;8.20;;;7.50;;
11046;SDS011;5576;50.008;10.596;2023-05-07T03:12:30;8.43;;;7.72;;
11046;SDS011;5576;50.008;10.596;2023-05-07T03:14:56;9.05;;;8.18;;
11046;SDS011;5576;50.008;10.596;2023-05-07T03:17:22;9.18;;;8.32;;
11046;SDS011;5576;50.008;10.596;2023-05-07T03:19:48;9.10;;;8.20;;
11046;SDS011;5576;50.008;10.596;2023-05-07T03:22:14;9.10;;;8.20;;
11046;SDS011;5576;50.008;10.596;2023-05-07T03:24:40;9.00;;;8.10;;
11046;SDS011;5576;50.008;10.596;2023-05-07T03:27:06;8.47;;;7.67;;
11046;SDS011;5576;50.008;10.596;2023-05-07T03:29:32;8.80;;;8.00;;
11046;SDS011;5576;50.008;10.596;2023-05-07T03:31:57;8.88;;;8.07;;
11046;SDS011;5576;50.008;10.596;2023-05-07T03:34:23;9.02;;;8.23;;
11046;SDS011;5576;50.008;10.596;2023-05-07T03:36:49;9.50;;;8.60;;
11046;SDS011;5576;50.008;10.596;2023-05-07T03:39:16;9.20;;;8.40;;
11046;SDS011;5576;50.008;10.596;2023-05-07T03:41:41;9.10;;;8.30;;
11046;SDS011;5576;50.008;10.596;2023-05-07T03:44:08;9.52;;;8.63;;
11046;SDS011;5576;50.008;10.596;2023-05-07T03:46:34;9.30;;;8.50;;
11046;SDS011;5576;50.008;10.596;2023-05-07T03:49:00;9.27;;;8.48;;
11046;SDS011;5576;50.008;10.596;2023-05-07T03:51:26;8.95;;;8.13;;
11046;SDS011;5576;50.008;10.596;2023-05-07T03:53:52;9.25;;;8.35;;
11046;SDS011;5576;50.008;10.596;2023-05-07T03:56:19;9.23;;;8.43;;
11046;SDS011;5576;50.008;10.596;2023-05-07T03:58:45;9.25;;;8.18;;
11046;SDS011;5576;50.008;10.596;2023-05-07T04:01:12;11.30;;;10.10;;
11046;SDS011;5576;50.008;10.596;2023-05-07T04:03:38;9.35;;;8.50;;
11046;SDS011;5576;50.008;10.596;2023-05-07T04:06:03;10.90;;;9.90;;
11046;SDS011;5576;50.008;10.596;2023-05-07T04:08:31;10.18;;;9.18;;
11046;SDS011;5576;50.008;10.596;2023-05-07T04:10:57;10.80;;;9.67;;
11046;SDS011;5576;50.008;10.596;2023-05-07T04:13:27;10.23;;;9.32;;
11046;SDS011;5576;50.008;10.596;2023-05-07T04:15:54;10.70;;;9.70;;
11046;SDS011;5576;50.008;10.596;2023-05-07T04:18:21;12.00;;;10.02;;
11046;SDS011;5576;50.008;10.596;2023-05-07T04:20:48;11.40;;;10.27;;
11046;SDS011;5576;50.008;10.596;2023-05-07T04:23:15;11.35;;;10.25;;
11046;SDS011;5576;50.008;10.596;2023-05-07T04:25:41;12.07;;;10.85;;
11046;SDS011;5576;50.008;10.596;2023-05-07T04:28:15;12.10;;;11.00;;
11046;SDS011;5576;50.008;10.596;2023-05-07T04:30:41;12.10;;;10.90;;
11046;SDS011;5576;50.008;10.596;2023-05-07T04:33:07;12.40;;;11.18;;
11046;SDS011;5576;50.008;10.596;2023-05-07T04:35:34;11.23;;;10.13;;
11046;SDS011;5576;50.008;10.596;2023-05-07T04:38:01;13.10;;;11.77;;
11046;SDS011;5576;50.008;10.596;2023-05-07T04:40:28;12.90;;;11.70;;
11046;SDS011;5576;50.008;10.596;2023-05-07T04:42:53;13.23;;;11.93;;
11046;SDS011;5576;50.008;10.596;2023-05-07T04:45:20;13.63;;;12.23;;
11046;SDS011;5576;50.008;10.596;2023-05-07T04:47:47;13.30;;;12.00;;
11046;SDS011;5576;50.008;10.596;2023-05-07T04:50:12;12.93;;;11.73;;
11046;SDS011;5576;50.008;10.596;2023-05-07T04:52:41;13.35;;;12.02;;
11046;SDS011;5576;50.008;10.596;2023-05-07T04:55:07;12.90;;;11.70;;
11046;SDS011;5576;50.008;10.596;2023-05-07T04:57:36;13.60;;;12.32;;
11046;SDS011;5576;50.008;10.596;2023-05-07T05:00:05;13.68;;;12.27;;
11046;SDS011;5576;50.008;10.596;2023-05-07T05:02:33;12.55;;;11.35;;
11046;SDS011;5576;50.008;10.596;2023-05-07T05:05:00;12.98;;;11.80;;
11046;SDS011;5576;50.008;10.596;2023-05-07T05:07:27;12.75;;;11.48;;
11046;SDS011;5576;50.008;10.596;2023-05-07T05:09:54;13.02;;;11.82;;
11046;SDS011;5576;50.008;10.596;2023-05-07T05:12:21;12.10;;;11.00;;
11046;SDS011;5576;50.008;10.596;2023-05-07T05:14:47;12.23;;;11.10;;
11046;SDS011;5576;50.008;10.596;2023-05-07T05:17:14;11.13;;;10.13;;
11046;SDS011;5576;50.008;10.596;2023-05-07T05:19:39;12.27;;;11.07;;
11046;SDS011;5576;50.008;10.596;2023-05-07T05:22:06;11.52;;;10.43;;
11046;SDS011;5576;50.008;10.596;2023-05-07T05:24:32;11.60;;;10.50;;
11046;SDS011;5576;50.008;10.596;2023-05-07T05:26:58;11.57;;;10.38;;
11046;SDS011;5576;50.008;10.596;2023-05-07T05:29:28;10.77;;;9.85;;
11046;SDS011;5576;50.008;10.596;2023-05-07T05:31:54;11.25;;;10.27;;
11046;SDS011;5576;50.008;10.596;2023-05-07T05:34:20;10.70;;;9.70;;
11046;SDS011;5576;50.008;10.596;2023-05-07T05:36:47;10.40;;;9.40;;
11046;SDS011;5576;50.008;10.596;2023-05-07T05:39:14;10.82;;;9.82;;
11046;SDS011;5576;50.008;10.596;2023-05-07T05:41:40;10.43;;;9.53;;
11046;SDS011;5576;50.008;10.596;2023-05-07T05:44:06;9.80;;;8.90;;
11046;SDS011;5576;50.008;10.596;2023-05-07T05:46:33;9.73;;;8.83;;
11046;SDS011;5576;50.008;10.596;2023-05-07T05:48:58;10.20;;;9.20;;
11046;SDS011;5576;50.008;10.596;2023-05-07T05:51:24;10.23;;;9.30;;
11046;SDS011;5576;50.008;10.596;2023-05-07T05:53:51;10.53;;;8.77;;
11046;SDS011;5576;50.008;10.596;2023-05-07T05:56:17;9.35;;;8.55;;
11046;SDS011;5576;50.008;10.596;2023-05-07T05:58:43;9.35;;;8.55;;
11046;SDS011;5576;50.008;10.596;2023-05-07T06:01:09;9.30;;;8.40;;
11046;SDS011;5576;50.008;10.596;2023-05-07T06:03:36;9.33;;;8.53;;
11046;SDS011;5576;50.008;10.596;2023-05-07T06:06:10;9.05;;;8.05;;
11046;SDS011;5576;50.008;10.596;2023-05-07T06:08:36;9.38;;;8.48;;
11046;SDS011;5576;50.008;10.596;2023-05-07T06:11:02;9.40;;;8.48;;
11046;SDS011;5576;50.008;10.596;2023-05-07T06:13:31;9.35;;;8.45;;
11046;SDS011;5576;50.008;10.596;2023-05-07T06:15:56;9.90;;;9.00;;
11046;SDS011;5576;50.008;10.596;2023-05-07T06:18:22;9.13;;;8.32;;
11046;SDS011;5576;50.008;10.596;2023-05-07T06:20:48;9.70;;;8.80;;
11046;SDS011;5576;50.008;10.596;2023-05-07T06:23:22;8.95;;;8.18;;
11046;SDS011;5576;50.008;10.596;2023-05-07T06:25:48;9.20;;;8.30;;
11046;SDS011;5576;50.008;10.596;2023-05-07T06:28:15;8.75;;;7.95;;
11046;SDS011;5576;50.008;10.596;2023-05-07T06:30:42;8.90;;;8.00;;
11046;SDS011;5576;50.008;10.596;2023-05-07T06:33:08;8.67;;;7.77;;
11046;SDS011;5576;50.008;10.596;2023-05-07T06:35:34;8.77;;;8.02;;
11046;SDS011;5576;50.008;10.596;2023-05-07T06:38:00;8.70;;;7.97;;
11046;SDS011;5576;50.008;10.596;2023-05-07T06:40:28;8.65;;;7.85;;
11046;SDS011;5576;50.008;10.596;2023-05-07T06:42:54;8.80;;;8.00;;
11046;SDS011;5576;50.008;10.596;2023-05-07T06:45:28;8.43;;;7.63;;
11046;SDS011;5576;50.008;10.596;2023-05-07T06:47:55;8.60;;;7.80;;
11046;SDS011;5576;50.008;10.596;2023-05-07T06:50:22;8.65;;;7.85;;
11046;SDS011;5576;50.008;10.596;2023-05-07T06:52:49;8.13;;;7.32;;
11046;SDS011;5576;50.008;10.596;2023-05-07T06:55:14;8.60;;;7.80;;
11046;SDS011;5576;50.008;10.596;2023-05-07T06:57:40;8.30;;;7.60;;
11046;SDS011;5576;50.008;10.596;2023-05-07T07:00:06;8.63;;;7.82;;
11046;SDS011;5576;50.008;10.596;2023-05-07T07:02:41;8.40;;;7.60;;
11046;SDS011;5576;50.008;10.596;2023-05-07T07:05:08;8.13;;;7.33;;
11046;SDS011;5576;50.008;10.596;2023-05-07T07:07:34;8.40;;;7.60;;
11046;SDS011;5576;50.008;10.596;2023-05-07T07:10:00;8.20;;;7.40;;
11046;SDS011;5576;50.008;10.596;2023-05-07T07:12:28;9.10;;;8.20;;
11046;SDS011;5576;50.008;10.596;2023-05-07T07:14:55;7.85;;;7.15;;
11046;SDS011;5576;50.008;10.596;2023-05-07T07:17:21;8.52;;;7.80;;
11046;SDS011;5576;50.008;10.596;2023-05-07T07:19:47;7.75;;;7.05;;
11046;SDS011;5576;50.008;10.596;2023-05-07T07:22:13;7.73;;;7.03;;
11046;SDS011;5576;50.008;10.596;2023-05-07T07:24:39;8.18;;;7.38;;
11046;SDS011;5576;50.008;10.596;2023-05-07T07:27:07;8.50;;;7.70;;
11046;SDS011;5576;50.008;10.596;2023-05-07T07:29:33;7.85;;;7.15;;
11046;SDS011;5576;50.008;10.596;2023-05-07T07:31:59;8.52;;;7.72;;
11046;SDS011;5576;50.008;10.596;2023-05-07T07:34:25;8.20;;;7.40;;
11046;SDS011;5576;50.008;10.596;2023-05-07T07:36:51;7.97;;;7.15;;
11046;SDS011;5576;50.008;10.596;2023-05-07T07:39:18;7.10;;;6.40;;
11046;SDS011;5576;50.008;10.596;2023-05-07T07:41:46;6.90;;;6.22;;
11046;SDS011;5576;50.008;10.596;2023-05-07T07:44:12;6.97;;;6.38;;
11046;SDS011;5576;50.008;10.596;2023-05-07T07:46:39;7.40;;;6.70;;
11046;SDS011;5576;50.008;10.596;2023-05-07T07:49:06;6.65;;;6.05;;
11046;SDS011;5576;50.008;10.596;2023-05-07T07:51:31;7.13;;;6.45;;
11046;SDS011;5576;50.008;10.596;2023-05-07T07:53:59;7.30;;;6.60;;
11046;SDS011;5576;50.008;10.596;2023-05-07T07:56:25;7.63;;;6.83;;
11046;SDS011;5576;50.008;10.596;2023-05-07T07:58:51;7.05;;;6.45;;
11046;SDS011;5576;50.008;10.596;2023-05-07T08:01:17;7.50;;;6.80;;
11046;SDS011;5576;50.008;10.596;2023-05-07T08:03:45;7.80;;;7.00;;
11046;SDS011;5576;50.008;10.596;2023-05-07T08:06:12;7.87;;;7.13;;
11046;SDS011;5576;50.008;10.596;2023-05-07T08:08:38;7.60;;;6.90;;
11046;SDS011;5576;50.008;10.596;2023-05-07T08:11:04;7.30;;;6.70;;
11046;SDS011;5576;50.008;10.596;2023-05-07T08:13:32;7.53;;;6.93;;
11046;SDS011;5576;50.008;10.596;2023-05-07T08:15:59;7.30;;;6.70;;
11046;SDS011;5576;50.008;10.596;2023-05-07T08:18:25;7.80;;;7.10;;
11046;SDS011;5576;50.008;10.596;2023-05-07T08:20:53;7.90;;;6.70;;
11046;SDS011;5576;50.008;10.596;2023-05-07T08:23:22;7.68;;;6.97;;
11046;SDS011;5576;50.008;10.596;2023-05-07T08:25:49;7.40;;;6.70;;
11046;SDS011;5576;50.008;10.596;2023-05-07T08:28:15;7.80;;;7.05;;
11046;SDS011;5576;50.008;10.596;2023-05-07T08:30:41;7.20;;;6.60;;
11046;SDS011;5576;50.008;10.596;2023-05-07T08:33:08;7.05;;;6.45;;
11046;SDS011;5576;50.008;10.596;2023-05-07T08:35:34;6.82;;;6.00;;
11046;SDS011;5576;50.008;10.596;2023-05-07T08:38:00;7.70;;;7.00;;
11046;SDS011;5576;50.008;10.596;2023-05-07T08:40:26;7.72;;;7.03;;
11046;SDS011;5576;50.008;10.596;2023-05-07T08:42:53;7.20;;;6.50;;
11046;SDS011;5576;50.008;10.596;2023-05-07T08:45:21;7.18;;;6.57;;
11046;SDS011;5576;50.008;10.596;2023-05-07T08:47:51;7.30;;;6.60;;
11046;SDS011;5576;50.008;10.596;2023-05-07T08:50:21;7.60;;;6.90;;
11046;SDS011;5576;50.008;10.596;2023-05-07T08:52:48;7.33;;;6.67;;
11046;SDS011;5576;50.008;10.596;2023-05-07T08:55:16;6.90;;;6.20;;
11046;SDS011;5576;50.008;10.596;2023-05-07T08:57:42;8.13;;;7.32;;
11046;SDS011;5576;50.008;10.596;2023-05-07T09:00:10;7.97;;;7.18;;
11046;SDS011;5576;50.008;10.596;2023-05-07T09:02:37;7.82;;;7.10;;
11046;SDS011;5576;50.008;10.596;2023-05-07T09:05:04;7.45;;;6.75;;
11046;SDS011;5576;50.008;10.596;2023-05-07T09:07:30;7.43;;;6.72;;
11046;SDS011;5576;50.008;10.596;2023-05-07T09:09:57;6.85;;;6.25;;
11046;SDS011;5576;50.008;10.596;2023-05-07T09:12:24;7.20;;;6.53;;
11046;SDS011;5576;50.008;10.596;2023-05-07T09:14:50;8.02;;;7.22;;
11046;SDS011;5576;50.008;10.596;2023-05-07T09:17:16;7.30;;;6.60;;
11046;SDS011;5576;50.008;10.596;2023-05-07T09:19:44;7.80;;;7.00;;
11046;SDS011;5576;50.008;10.596;2023-05-07T09:22:11;7.60;;;6.90;;
11046;SDS011;5576;50.008;10.596;2023-05-07T09:24:49;7.40;;;6.70;;
11046;SDS011;5576;50.008;10.596;2023-05-07T09:27:17;7.70;;;7.00;;
11046;SDS011;5576;50.008;10.596;2023-05-07T09:29:44;7.22;;;6.53;;
11046;SDS011;5576;50.008;10.596;2023-05-07T09:32:10;7.85;;;6.75;;
11046;SDS011;5576;50.008;10.596;2023-05-07T09:34:36;7.90;;;7.10;;
11046;SDS011;5576;50.008;10.596;2023-05-07T09:37:02;7.68;;;6.97;;
11046;SDS011;5576;50.008;10.596;2023-05-07T09:39:45;7.55;;;6.85;;
11046;SDS011;5576;50.008;10.596;2023-05-07T09:42:14;8.48;;;7.65;;
11046;SDS011;5576;50.008;10.596;2023-05-07T09:44:40;7.70;;;7.00;;
11046;SDS011;5576;50.008;10.596;2023-05-07T09:47:12;7.63;;;6.50;;
11046;SDS011;5576;50.008;10.596;2023-05-07T09:49:44;7.00;;;6.40;;
11046;SDS011;5576;50.008;10.596;2023-05-07T09:52:13;6.60;;;6.00;;
11046;SDS011;5576;50.008;10.596;2023-05-07T09:54:45;7.40;;;6.70;;
11046;SDS011;5576;50.008;10.596;2023-05-07T09:57:16;7.50;;;6.80;;
11046;SDS011;5576;50.008;10.596;2023-05-07T09:59:47;7.63;;;6.93;;
11046;SDS011;5576;50.008;10.596;2023-05-07T10:02:17;6.80;;;6.20;;
11046;SDS011;5576;50.008;10.596;2023-05-07T10:04:48;6.72;;;6.13;;
11046;SDS011;5576;50.008;10.596;2023-05-07T10:07:17;7.83;;;7.03;;
11046;SDS011;5576;50.008;10.596;2023-05-07T10:09:44;7.43;;;6.73;;
11046;SDS011;5576;50.008;10.596;2023-05-07T10:12:20;10.07;;;8.82;;
11046;SDS011;5576;50.008;10.596;2023-05-07T10:14:47;7.50;;;6.80;;
11046;SDS011;5576;50.008;10.596;2023-05-07T10:17:15;7.72;;;6.93;;
11046;SDS011;5576;50.008;10.596;2023-05-07T10:19:44;6.78;;;6.18;;
11046;SDS011;5576;50.008;10.596;2023-05-07T10:22:10;6.93;;;6.10;;
11046;SDS011;5576;50.008;10.596;2023-05-07T10:24:42;7.20;;;6.50;;
11046;SDS011;5576;50.008;10.596;2023-05-07T10:27:15;6.32;;;5.70;;
11046;SDS011;5576;50.008;10.596;2023-05-07T10:29:53;6.15;;;5.55;;
11046;SDS011;5576;50.008;10.596;2023-05-07T10:34:53;7.43;;;6.63;;
11046;SDS011;5576;50.008;10.596;2023-05-07T10:37:21;6.57;;;5.97;;
11046;SDS011;5576;50.008;10.596;2023-05-07T10:39:48;6.35;;;5.85;;
11046;SDS011;5576;50.008;10.596;2023-05-07T10:42:14;5.95;;;5.35;;
11046;SDS011;5576;50.008;10.596;2023-05-07T10:44:46;6.07;;;5.57;;
11046;SDS011;5576;50.008;10.596;2023-05-07T10:47:19;6.22;;;5.63;;
11046;SDS011;5576;50.008;10.596;2023-05-07T10:52:22;6.40;;;5.75;;
11046;SDS011;5576;50.008;10.596;2023-05-07T10:55:19;6.13;;;5.53;;
11046;SDS011;5576;50.008;10.596;2023-05-07T10:58:22;6.25;;;5.65;;
11046;SDS011;5576;50.008;10.596;2023-05-07T11:00:57;6.00;;;5.40;;
11046;SDS011;5576;50.008;10.596;2023-05-07T11:03:30;5.80;;;5.30;;
11046;SDS011;5576;50.008;10.596;2023-05-07T11:06:15;5.90;;;5.30;;
11046;SDS011;5576;50.008;10.596;2023-05-07T11:17:17;5.38;;;4.88;;
11046;SDS011;5576;50.008;10.596;2023-05-07T11:19:51;5.03;;;4.63;;
11046;SDS011;5576;50.008;10.596;2023-05-07T11:25:08;5.10;;;4.70;;
11046;SDS011;5576;50.008;10.596;2023-05-07T11:27:35;5.43;;;4.93;;
11046;SDS011;5576;50.008;10.596;2023-05-07T11:30:01;5.60;;;4.70;;
11046;SDS011;5576;50.008;10.596;2023-05-07T11:32:28;5.27;;;4.67;;
11046;SDS011;5576;50.008;10.596;2023-05-07T11:34:57;4.80;;;4.40;;
11046;SDS011;5576;50.008;10.596;2023-05-07T11:37:25;4.45;;;4.10;;
11046;SDS011;5576;50.008;10.596;2023-05-07T11:40:04;4.63;;;4.23;;
11046;SDS011;5576;50.008;10.596;2023-05-07T11:42:33;5.55;;;4.40;;
11046;SDS011;5576;50.008;10.596;2023-05-07T11:45:02;6.10;;;4.25;;
11046;SDS011;5576;50.008;10.596;2023-05-07T11:47:30;4.75;;;4.00;;
11046;SDS011;5576;50.008;10.596;2023-05-07T11:49:56;4.65;;;4.25;;
11046;SDS011;5576;50.008;10.596;2023-05-07T11:52:26;4.60;;;4.20;;
11046;SDS011;5576;50.008;10.596;2023-05-07T11:54:55;4.60;;;4.17;;
11046;SDS011;5576;50.008;10.596;2023-05-07T11:57:23;4.47;;;4.07;;
11046;SDS011;5576;50.008;10.596;2023-05-07T11:59:57;4.40;;;4.00;;
11046;SDS011;5576;50.008;10.596;2023-05-07T12:02:24;4.70;;;4.20;;
11046;SDS011;5576;50.008;10.596;2023-05-07T12:04:51;4.68;;;4.28;;
11046;SDS011;5576;50.008;10.596;2023-05-07T12:07:17;6.22;;;5.63;;
11046;SDS011;5576;50.008;10.596;2023-05-07T12:09:43;4.57;;;4.17;;
11046;SDS011;5576;50.008;10.596;2023-05-07T12:12:10;4.20;;;3.90;;
11046;SDS011;5576;50.008;10.596;2023-05-07T12:14:39;4.43;;;4.03;;
11046;SDS011;5576;50.008;10.596;2023-05-07T12:17:05;3.90;;;3.60;;
11046;SDS011;5576;50.008;10.596;2023-05-07T12:19:32;4.03;;;3.60;;
11046;SDS011;5576;50.008;10.596;2023-05-07T12:21:59;3.88;;;3.50;;
11046;SDS011;5576;50.008;10.596;2023-05-07T12:24:26;4.07;;;3.50;;
11046;SDS011;5576;50.008;10.596;2023-05-07T12:26:52;3.90;;;3.60;;
11046;SDS011;5576;50.008;10.596;2023-05-07T12:29:22;3.50;;;3.20;;
11046;SDS011;5576;50.008;10.596;2023-05-07T12:31:49;3.70;;;3.40;;
11046;SDS011;5576;50.008;10.596;2023-05-07T12:34:15;3.60;;;3.30;;
11046;SDS011;5576;50.008;10.596;2023-05-07T12:36:41;4.07;;;3.67;;
11046;SDS011;5576;50.008;10.596;2023-05-07T12:39:07;3.65;;;3.35;;
11046;SDS011;5576;50.008;10.596;2023-05-07T12:44:23;3.80;;;3.25;;
11046;SDS011;5576;50.008;10.596;2023-05-07T12:46:50;4.03;;;3.35;;
11046;SDS011;5576;50.008;10.596;2023-05-07T12:49:16;4.03;;;3.40;;
11046;SDS011;5576;50.008;10.596;2023-05-07T12:51:43;3.30;;;3.00;;
11046;SDS011;5576;50.008;10.596;2023-05-07T12:54:11;3.38;;;3.08;;
11046;SDS011;5576;50.008;10.596;2023-05-07T12:56:37;3.40;;;3.03;;
11046;SDS011;5576;50.008;10.596;2023-05-07T12:59:02;3.00;;;2.80;;
11046;SDS011;5576;50.008;10.596;2023-05-07T13:01:29;3.30;;;3.03;;
11046;SDS011;5576;50.008;10.596;2023-05-07T13:03:57;3.55;;;3.00;;
11046;SDS011;5576;50.008;10.596;2023-05-07T13:06:26;3.40;;;3.10;;
11046;SDS011;5576;50.008;10.596;2023-05-07T13:08:52;3.23;;;2.93;;
11046;SDS011;5576;50.008;10.596;2023-05-07T13:11:18;3.30;;;3.00;;
11046;SDS011;5576;50.008;10.596;2023-05-07T13:13:44;3.20;;;2.90;;
11046;SDS011;5576;50.008;10.596;2023-05-07T13:16:10;3.00;;;2.80;;
11046;SDS011;5576;50.008;10.596;2023-05-07T13:18:37;3.33;;;3.03;;
11046;SDS011;5576;50.008;10.596;2023-05-07T13:21:04;3.23;;;2.93;;
11046;SDS011;5576;50.008;10.596;2023-05-07T13:23:29;3.10;;;2.80;;
11046;SDS011;5576;50.008;10.596;2023-05-07T13:25:55;2.93;;;2.73;;
11046;SDS011;5576;50.008;10.596;2023-05-07T13:28:21;3.22;;;2.90;;
11046;SDS011;5576;50.008;10.596;2023-05-07T13:30:47;3.10;;;2.80;;
11046;SDS011;5576;50.008;10.596;2023-05-07T13:33:13;3.70;;;2.92;;
11046;SDS011;5576;50.008;10.596;2023-05-07T13:35:40;3.20;;;2.72;;
11046;SDS011;5576;50.008;10.596;2023-05-07T13:38:06;3.10;;;2.80;;
11046;SDS011;5576;50.008;10.596;2023-05-07T13:40:33;3.20;;;2.80;;
11046;SDS011;5576;50.008;10.596;2023-05-07T13:42:58;3.28;;;2.80;;
11046;SDS011;5576;50.008;10.596;2023-05-07T13:45:27;3.10;;;2.80;;
11046;SDS011;5576;50.008;10.596;2023-05-07T13:47:54;2.97;;;2.78;;
11046;SDS011;5576;50.008;10.596;2023-05-07T13:50:21;3.20;;;2.90;;
11046;SDS011;5576;50.008;10.596;2023-05-07T13:52:47;3.30;;;3.00;;
11046;SDS011;5576;50.008;10.596;2023-05-07T13:55:16;2.70;;;2.47;;
11046;SDS011;5576;50.008;10.596;2023-05-07T13:57:43;2.80;;;2.60;;
11046;SDS011;5576;50.008;10.596;2023-05-07T14:00:09;3.60;;;2.60;;
11046;SDS011;5576;50.008;10.596;2023-05-07T14:02:44;3.00;;;2.70;;
11046;SDS011;5576;50.008;10.596;2023-05-07T14:05:09;3.33;;;2.73;;
11046;SDS011;5576;50.008;10.596;2023-05-07T14:07:35;3.00;;;2.70;;
11046;SDS011;5576;50.008;10.596;2023-05-07T14:10:02;2.72;;;2.53;;
11046;SDS011;5576;50.008;10.596;2023-05-07T14:12:28;2.80;;;2.60;;
11046;SDS011;5576;50.008;10.596;2023-05-07T14:14:53;3.00;;;2.70;;
11046;SDS011;5576;50.008;10.596;2023-05-07T14:17:20;2.90;;;2.70;;
11046;SDS011;5576;50.008;10.596;2023-05-07T14:19:48;3.08;;;2.80;;
11046;SDS011;5576;50.008;10.596;2023-05-07T14:22:13;3.67;;;2.70;;
11046;SDS011;5576;50.008;10.596;2023-05-07T14:24:40;2.75;;;2.50;;
11046;SDS011;5576;50.008;10.596;2023-05-07T14:27:06;3.70;;;2.85;;
11046;SDS011;5576;50.008;10.596;2023-05-07T14:29:32;3.95;;;2.80;;
11046;SDS011;5576;50.008;10.596;2023-05-07T14:31:58;3.10;;;2.67;;
11046;SDS011;5576;50.008;10.596;2023-05-07T14:34:23;2.92;;;2.63;;
11046;SDS011;5576;50.008;10.596;2023-05-07T14:36:49;2.90;;;2.70;;
11046;SDS011;5576;50.008;10.596;2023-05-07T14:39:17;2.70;;;2.50;;
11046;SDS011;5576;50.008;10.596;2023-05-07T14:41:43;3.10;;;2.80;;
11046;SDS011;5576;50.008;10.596;2023-05-07T14:44:08;3.17;;;2.87;;
11046;SDS011;5576;50.008;10.596;2023-05-07T14:46:34;3.85;;;2.78;;
11046;SDS011;5576;50.008;10.596;2023-05-07T14:49:01;2.83;;;2.60;;
11046;SDS011;5576;50.008;10.596;2023-05-07T14:51:27;2.80;;;2.60;;
11046;SDS011;5576;50.008;10.596;2023-05-07T14:53:53;2.88;;;2.33;;
11046;SDS011;5576;50.008;10.596;2023-05-07T14:56:19;4.00;;;3.10;;
11046;SDS011;5576;50.008;10.596;2023-05-07T14:58:46;3.70;;;2.80;;
11046;SDS011;5576;50.008;10.596;2023-05-07T15:01:13;3.00;;;2.80;;
11046;SDS011;5576;50.008;10.596;2023-05-07T15:03:39;3.00;;;2.60;;
11046;SDS011;5576;50.008;10.596;2023-05-07T15:06:05;2.92;;;2.63;;
11046;SDS011;5576;50.008;10.596;2023-05-07T15:08:31;2.40;;;2.20;;